Time;durP1;ratioP1;P1;durP2;ratioP2;P2;SDS_P1;SDS_P2;PMS_P1;PMS_P2;Temp;Humidity;BMP_temperature;BMP_pressure;BME280_temperature;BME280_humidity;BME280_pressure;Samples;Min_cycle;Max_cycle;Signal;HPM_P1;HPM_P2
2022/06/07 00:02:25;;;;;;;4.40;4.10;;;14.10;99.90;;;;;;5051975;28;20231;-70
2022/06/07 00:04:55;;;;;;;4.37;4.03;;;14.10;99.90;;;;;;5051649;28;20292;-70
2022/06/07 00:07:26;;;;;;;4.90;4.50;;;14.10;99.90;;;;;;5043777;28;20221;-70
2022/06/07 00:09:55;;;;;;;4.40;4.00;;;14.10;99.90;;;;;;5045299;28;20224;-70
2022/06/07 00:12:24;;;;;;;4.20;3.90;;;14.10;99.90;;;;;;5038604;28;20282;-70
2022/06/07 00:14:52;;;;;;;4.73;4.33;;;14.10;99.90;;;;;;5049381;28;20231;-70
2022/06/07 00:17:21;;;;;;;4.77;4.37;;;14.10;99.90;;;;;;5052244;28;20261;-70
2022/06/07 00:19:50;;;;;;;5.03;4.53;;;14.10;99.90;;;;;;5045829;28;20235;-70
2022/06/07 00:22:18;;;;;;;5.60;4.80;;;14.10;99.90;;;;;;5055109;28;20241;-70
2022/06/07 00:24:47;;;;;;;5.40;4.90;;;14.00;99.90;;;;;;5054551;28;20579;-70
2022/06/07 00:27:16;;;;;;;5.40;4.90;;;14.00;99.90;;;;;;5041653;28;20243;-70
2022/06/07 00:29:46;;;;;;;5.53;5.00;;;14.00;99.90;;;;;;5032857;28;20231;-70
2022/06/07 00:32:18;;;;;;;5.23;4.73;;;14.00;99.90;;;;;;5055635;28;20220;-70
2022/06/07 00:34:46;;;;;;;5.93;4.60;;;14.00;99.90;;;;;;5052236;28;20227;-70
2022/06/07 00:37:15;;;;;;;4.77;4.37;;;14.00;99.90;;;;;;5055434;28;20777;-70
2022/06/07 00:39:43;;;;;;;4.43;4.07;;;14.00;99.90;;;;;;5025946;28;20922;-70
2022/06/07 00:42:12;;;;;;;4.90;4.50;;;14.00;99.90;;;;;;5042467;28;20220;-70
2022/06/07 00:44:44;;;;;;;7.17;4.20;;;14.00;99.90;;;;;;5050186;28;20222;-70
2022/06/07 00:47:14;;;;;;;4.67;4.00;;;14.00;99.90;;;;;;5055422;28;20223;-70
2022/06/07 00:49:47;;;;;;;4.90;4.40;;;14.00;99.90;;;;;;5049424;28;20225;-70
2022/06/07 00:52:17;;;;;;;6.13;4.07;;;14.00;99.90;;;;;;5055214;28;20223;-70
2022/06/07 00:54:45;;;;;;;4.47;4.07;;;14.00;99.90;;;;;;5051166;28;20323;-70
2022/06/07 00:57:28;;;;;;;5.00;4.17;;;13.90;99.90;;;;;;5046488;28;20233;-70
2022/06/07 00:59:57;;;;;;;5.73;4.40;;;13.90;99.90;;;;;;5042147;28;20223;-70
2022/06/07 01:02:25;;;;;;;4.87;4.47;;;13.90;99.90;;;;;;5053875;28;20314;-70
2022/06/07 01:04:54;;;;;;;4.43;4.03;;;13.80;99.90;;;;;;5045888;28;20628;-70
2022/06/07 01:13:00;;;;;;;4.70;3.70;;;13.80;99.90;;;;;;5032422;28;20278;-70
2022/06/07 01:15:31;;;;;;;4.77;3.50;;;13.80;99.90;;;;;;5036181;28;20593;-70
2022/06/07 01:18:03;;;;;;;4.57;3.80;;;13.80;99.90;;;;;;5033681;28;20255;-70
2022/06/07 01:20:34;;;;;;;3.80;3.37;;;13.80;99.90;;;;;;5031986;28;20236;-70
2022/06/07 01:23:03;;;;;;;3.70;3.40;;;13.80;99.90;;;;;;5034586;28;20225;-69
2022/06/07 01:25:32;;;;;;;3.80;3.50;;;13.80;99.90;;;;;;5031757;28;20232;-71
2022/06/07 01:28:02;;;;;;;3.60;3.30;;;13.80;99.90;;;;;;5028110;28;20232;-70
2022/06/07 01:30:30;;;;;;;3.70;3.40;;;13.80;99.90;;;;;;5031837;28;20274;-71
2022/06/07 01:32:59;;;;;;;3.60;3.30;;;13.90;99.90;;;;;;5033705;28;20236;-70
2022/06/07 01:35:27;;;;;;;4.30;3.90;;;13.90;99.90;;;;;;5033747;28;20228;-70
2022/06/07 01:37:55;;;;;;;4.30;3.57;;;13.80;99.90;;;;;;5040106;28;20224;-70
2022/06/07 01:43:10;;;;;;;3.97;3.57;;;13.90;99.90;;;;;;5030268;28;20238;-70
2022/06/07 01:45:38;;;;;;;4.10;3.70;;;13.90;99.90;;;;;;5034207;28;20227;-71
2022/06/07 01:48:07;;;;;;;3.93;3.63;;;13.90;99.90;;;;;;5033145;28;20231;-71
2022/06/07 01:50:35;;;;;;;4.33;3.93;;;13.90;99.90;;;;;;5032918;28;20224;-70
2022/06/07 01:53:03;;;;;;;3.63;3.33;;;13.90;99.90;;;;;;5034294;28;20235;-71
2022/06/07 01:55:33;;;;;;;4.97;4.47;;;13.90;99.90;;;;;;5032402;28;20318;-70
2022/06/07 01:58:05;;;;;;;4.40;4.00;;;13.90;99.90;;;;;;5027690;28;20233;-70
2022/06/07 02:00:34;;;;;;;4.70;4.17;;;13.90;99.90;;;;;;5031404;28;20263;-71
2022/06/07 02:03:02;;;;;;;4.63;4.23;;;13.90;99.90;;;;;;5032601;28;20298;-70
2022/06/07 02:05:30;;;;;;;5.80;5.30;;;13.90;99.90;;;;;;5032020;28;20236;-71
2022/06/07 02:08:00;;;;;;;5.07;4.63;;;13.90;99.90;;;;;;5032599;28;20224;-70
2022/06/07 02:10:33;;;;;;;5.27;4.77;;;13.90;99.90;;;;;;5030952;28;20242;-71
2022/06/07 02:13:08;;;;;;;5.77;5.27;;;13.90;99.90;;;;;;5028145;28;20226;-71
2022/06/07 02:15:36;;;;;;;5.77;5.27;;;13.90;99.90;;;;;;5037686;28;20278;-70
2022/06/07 02:18:05;;;;;;;6.00;5.50;;;13.90;99.90;;;;;;5033805;28;20232;-70
2022/06/07 02:20:41;;;;;;;5.60;5.10;;;13.90;99.90;;;;;;5031080;28;20719;-71
2022/06/07 02:23:10;;;;;;;6.00;5.50;;;13.90;99.90;;;;;;5032184;28;20250;-71
2022/06/07 02:25:43;;;;;;;6.00;5.50;;;13.90;99.90;;;;;;5032098;28;20227;-70
2022/06/07 02:28:13;;;;;;;6.33;5.83;;;13.90;99.90;;;;;;5032240;28;20751;-71
2022/06/07 02:30:42;;;;;;;5.90;5.40;;;13.90;99.90;;;;;;5027417;28;20256;-71
2022/06/07 02:33:12;;;;;;;6.30;5.70;;;13.90;99.90;;;;;;5033187;28;20227;-70
2022/06/07 02:35:41;;;;;;;6.17;5.67;;;13.90;99.90;;;;;;5032765;28;20234;-70
2022/06/07 02:38:10;;;;;;;6.33;5.47;;;13.80;99.90;;;;;;5033176;28;20223;-70
2022/06/07 02:40:44;;;;;;;5.87;5.37;;;13.80;99.90;;;;;;5028166;28;20216;-71
2022/06/07 02:43:13;;;;;;;5.70;5.07;;;13.80;99.90;;;;;;5028114;28;20247;-71
2022/06/07 02:45:41;;;;;;;5.13;4.73;;;13.90;99.90;;;;;;5027414;28;20221;-71
2022/06/07 02:48:10;;;;;;;5.13;4.70;;;13.80;99.90;;;;;;5031944;28;20717;-71
2022/06/07 02:50:40;;;;;;;5.33;4.83;;;13.80;99.90;;;;;;5030284;28;20789;-71
2022/06/07 02:53:09;;;;;;;5.60;4.67;;;13.80;99.90;;;;;;5031901;28;20239;-70
2022/06/07 02:55:37;;;;;;;5.00;4.60;;;13.90;99.90;;;;;;5031338;28;20255;-70
2022/06/07 02:58:17;;;;;;;4.03;3.60;;;13.80;99.90;;;;;;5031546;28;20239;-70
2022/06/07 03:00:46;;;;;;;4.43;4.03;;;13.80;99.90;;;;;;5030312;28;20234;-70
2022/06/07 03:03:16;;;;;;;4.40;4.10;;;13.80;99.90;;;;;;5030309;28;20585;-71
2022/06/07 03:05:46;;;;;;;5.77;4.33;;;13.80;99.90;;;;;;5032182;28;20311;-71
2022/06/07 03:08:21;;;;;;;5.00;4.20;;;13.80;99.90;;;;;;5032821;28;20699;-71
2022/06/07 03:10:51;;;;;;;4.10;3.80;;;13.80;99.90;;;;;;5032366;28;20592;-71
2022/06/07 03:13:21;;;;;;;3.93;3.60;;;13.80;99.90;;;;;;5031966;28;20256;-70
2022/06/07 03:15:49;;;;;;;4.00;3.60;;;13.80;99.90;;;;;;5038457;28;20227;-71
2022/06/07 03:18:20;;;;;;;3.63;3.33;;;13.90;99.90;;;;;;5030956;28;20238;-71
2022/06/07 03:20:51;;;;;;;4.10;3.70;;;13.80;99.90;;;;;;5029963;28;20319;-71
2022/06/07 03:23:22;;;;;;;3.60;3.30;;;13.90;99.90;;;;;;5031337;28;20231;-70
2022/06/07 03:26:04;;;;;;;3.87;3.20;;;13.80;99.90;;;;;;5031141;28;20236;-71
2022/06/07 03:28:36;;;;;;;3.50;3.20;;;13.80;99.90;;;;;;5030964;28;20243;-71
2022/06/07 03:31:07;;;;;;;3.87;3.17;;;13.80;99.90;;;;;;5029742;28;20239;-71
2022/06/07 03:33:38;;;;;;;3.17;2.93;;;13.80;99.90;;;;;;5030911;28;20251;-71
2022/06/07 03:36:10;;;;;;;3.40;3.10;;;13.80;99.90;;;;;;5035337;28;20311;-71
2022/06/07 03:38:39;;;;;;;3.90;3.50;;;13.80;99.90;;;;;;5030901;28;20239;-71
2022/06/07 03:41:08;;;;;;;3.87;3.57;;;13.80;99.90;;;;;;5029721;28;20323;-71
2022/06/07 03:43:38;;;;;;;5.33;3.87;;;13.80;99.90;;;;;;5034032;28;20216;-71
2022/06/07 03:46:09;;;;;;;4.50;4.10;;;13.80;99.90;;;;;;5038577;28;20230;-71
2022/06/07 03:48:38;;;;;;;6.27;4.17;;;13.70;99.90;;;;;;5031080;28;20239;-71
2022/06/07 03:51:08;;;;;;;6.77;3.93;;;13.60;99.90;;;;;;5029509;28;20228;-71
2022/06/07 03:53:37;;;;;;;5.43;4.07;;;13.60;99.90;;;;;;5030893;28;20227;-71
2022/06/07 03:56:12;;;;;;;6.73;3.80;;;13.50;99.90;;;;;;5031652;28;20706;-71
2022/06/07 03:58:45;;;;;;;4.37;3.97;;;13.60;99.90;;;;;;5027196;28;20228;-70
2022/06/07 04:01:16;;;;;;;4.87;3.90;;;13.60;99.90;;;;;;5035044;28;20700;-71
2022/06/07 04:03:50;;;;;;;4.47;4.07;;;13.50;99.90;;;;;;5033071;28;20642;-71
2022/06/07 04:06:22;;;;;;;4.23;3.83;;;13.60;99.90;;;;;;5033521;28;20270;-71
2022/06/07 04:08:53;;;;;;;4.53;3.77;;;13.60;99.90;;;;;;5033952;28;20263;-70
2022/06/07 04:11:24;;;;;;;4.60;4.20;;;13.60;99.90;;;;;;5034647;28;20227;-71
2022/06/07 04:13:59;;;;;;;4.57;4.13;;;13.60;99.90;;;;;;5034663;28;20783;-71
2022/06/07 04:16:30;;;;;;;4.87;4.47;;;13.50;99.90;;;;;;5041782;28;20629;-71
2022/06/07 04:19:08;;;;;;;4.60;4.20;;;13.60;99.90;;;;;;5032732;28;20309;-71
2022/06/07 04:21:37;;;;;;;5.10;4.60;;;13.50;99.90;;;;;;5034151;28;20220;-71
2022/06/07 04:24:27;;;;;;;5.10;4.60;;;13.50;99.90;;;;;;5015121;28;20596;-71
2022/06/07 04:26:56;;;;;;;4.60;4.13;;;13.60;99.90;;;;;;5046223;28;20241;-70
2022/06/07 04:29:27;;;;;;;5.27;4.77;;;13.60;99.90;;;;;;5032940;28;20231;-71
2022/06/07 04:31:57;;;;;;;5.43;4.60;;;13.60;99.90;;;;;;5034257;28;20232;-71
2022/06/07 04:34:27;;;;;;;5.00;4.50;;;13.60;99.90;;;;;;5034108;28;20231;-71
2022/06/07 04:36:57;;;;;;;5.70;5.10;;;13.70;99.90;;;;;;5033531;28;20326;-70
2022/06/07 04:39:28;;;;;;;5.40;4.90;;;13.70;99.90;;;;;;5031663;28;20688;-71
2022/06/07 04:42:07;;;;;;;6.03;5.43;;;13.70;99.90;;;;;;5029617;28;20302;-71
2022/06/07 04:44:51;;;;;;;6.07;5.47;;;13.70;99.90;;;;;;5034509;28;20224;-71
2022/06/07 04:47:25;;;;;;;7.53;5.57;;;13.70;99.90;;;;;;5033944;28;20322;-71
2022/06/07 04:49:53;;;;;;;6.60;5.83;;;13.70;99.90;;;;;;5033011;28;20228;-71
2022/06/07 04:52:21;;;;;;;6.70;5.87;;;13.80;99.90;;;;;;5034349;28;20232;-71
2022/06/07 04:54:53;;;;;;;6.90;6.20;;;13.80;99.90;;;;;;5033401;28;20231;-71
2022/06/07 04:57:23;;;;;;;6.10;5.50;;;13.80;99.90;;;;;;5033753;28;20278;-71
2022/06/07 04:59:53;;;;;;;5.83;5.33;;;13.80;99.90;;;;;;5032507;28;20224;-72
2022/06/07 05:02:23;;;;;;;6.73;6.13;;;13.80;99.90;;;;;;5033957;28;20310;-71
2022/06/07 05:04:53;;;;;;;6.50;5.90;;;13.90;99.90;;;;;;5033729;28;20273;-71
2022/06/07 05:07:25;;;;;;;6.50;5.90;;;13.90;99.90;;;;;;5037774;28;20279;-72
2022/06/07 05:10:03;;;;;;;6.90;6.20;;;13.90;99.90;;;;;;5039311;28;20223;-72
2022/06/07 05:12:40;;;;;;;7.23;6.07;;;13.90;99.90;;;;;;5043594;28;20220;-71
2022/06/07 05:15:12;;;;;;;7.70;7.00;;;13.90;99.90;;;;;;5041508;28;20232;-71
2022/06/07 05:17:51;;;;;;;7.30;6.70;;;13.90;99.90;;;;;;5033217;28;20588;-71
2022/06/07 05:20:21;;;;;;;7.13;6.47;;;13.90;99.90;;;;;;5031874;28;20244;-71
2022/06/07 05:22:54;;;;;;;7.07;6.37;;;13.90;99.90;;;;;;5033781;28;20272;-71
2022/06/07 05:25:23;;;;;;;7.00;6.30;;;14.00;99.90;;;;;;5033737;28;20271;-70
2022/06/07 05:27:53;;;;;;;8.63;7.23;;;14.00;99.90;;;;;;5032553;28;20274;-71
2022/06/07 05:30:29;;;;;;;8.17;6.87;;;14.10;99.90;;;;;;5030591;28;20564;-71
2022/06/07 05:33:10;;;;;;;8.90;8.00;;;14.10;99.90;;;;;;5034254;28;20222;-71
2022/06/07 05:35:52;;;;;;;9.63;8.63;;;14.10;99.90;;;;;;5032799;28;20247;-71
2022/06/07 05:38:21;;;;;;;8.93;8.03;;;14.00;99.90;;;;;;5047184;28;20228;-71
2022/06/07 05:41:05;;;;;;;8.33;7.53;;;14.20;99.90;;;;;;5031708;28;20231;-72
2022/06/07 05:43:35;;;;;;;8.00;7.30;;;14.30;99.90;;;;;;5033311;28;20262;-71
2022/06/07 05:46:04;;;;;;;8.97;8.07;;;14.30;99.90;;;;;;5032933;28;20256;-71
2022/06/07 05:48:40;;;;;;;8.87;8.03;;;14.20;99.90;;;;;;5032999;28;20223;-71
2022/06/07 05:51:15;;;;;;;9.07;8.17;;;14.30;99.90;;;;;;5034444;28;20722;-71
2022/06/07 05:53:46;;;;;;;12.03;9.47;;;14.30;99.90;;;;;;5034466;28;20289;-70
2022/06/07 05:56:16;;;;;;;10.73;8.73;;;14.20;99.90;;;;;;5020372;28;20833;-71
2022/06/07 05:58:47;;;;;;;11.07;9.73;;;14.20;99.90;;;;;;5022899;28;20328;-70
2022/06/07 06:01:18;;;;;;;10.90;9.80;;;14.30;99.90;;;;;;5021693;28;20240;-70
2022/06/07 06:03:50;;;;;;;11.00;9.70;;;14.30;99.90;;;;;;5023238;28;20228;-70
2022/06/07 06:06:28;;;;;;;11.97;10.60;;;14.40;99.90;;;;;;5024132;28;20283;-71
2022/06/07 06:11:45;;;;;;;13.23;11.73;;;14.40;99.90;;;;;;4988717;28;20230;-71
2022/06/07 06:14:19;;;;;;;12.70;11.27;;;14.40;99.90;;;;;;5032394;28;20232;-70
2022/06/07 06:16:54;;;;;;;16.70;12.23;;;14.40;99.90;;;;;;5028537;28;20223;-71
2022/06/07 06:19:30;;;;;;;13.50;12.10;;;14.40;99.90;;;;;;5031257;28;20240;-70
2022/06/07 06:21:59;;;;;;;13.77;12.17;;;14.40;99.90;;;;;;5031068;28;20354;-70
2022/06/07 06:24:30;;;;;;;15.30;12.53;;;14.40;99.90;;;;;;5031608;28;20236;-70
2022/06/07 06:26:59;;;;;;;18.30;13.63;;;14.40;99.90;;;;;;5029263;28;20910;-71
2022/06/07 06:29:34;;;;;;;15.53;12.90;;;14.40;99.90;;;;;;5030576;28;20228;-71
2022/06/07 06:32:06;;;;;;;16.47;14.70;;;14.50;99.90;;;;;;5031259;28;20231;-70
2022/06/07 06:34:35;;;;;;;16.53;14.83;;;14.50;99.90;;;;;;5027368;28;20238;-70
2022/06/07 06:37:08;;;;;;;16.43;14.37;;;14.40;99.90;;;;;;5014593;28;20232;-70
2022/06/07 06:39:39;;;;;;;18.00;14.67;;;14.50;99.90;;;;;;5012961;28;20229;-70
2022/06/07 06:42:09;;;;;;;18.20;15.00;;;14.50;99.90;;;;;;5012841;28;20254;-70
2022/06/07 06:45:14;;;;;;;19.47;16.53;;;14.50;99.90;;;;;;5009228;28;20711;-70
2022/06/07 06:47:48;;;;;;;18.83;15.83;;;14.50;99.90;;;;;;5013433;28;20254;-70
2022/06/07 06:50:17;;;;;;;18.27;16.30;;;14.50;99.90;;;;;;5013792;28;20235;-70
2022/06/07 06:52:46;;;;;;;18.53;16.17;;;14.60;99.90;;;;;;5013580;28;20350;-70
2022/06/07 06:55:14;;;;;;;21.53;16.97;;;14.60;99.90;;;;;;5008550;28;20238;-70
2022/06/07 06:57:43;;;;;;;19.53;16.70;;;14.70;99.90;;;;;;5012429;28;20690;-70
2022/06/07 07:00:13;;;;;;;19.17;15.77;;;14.80;99.90;;;;;;5026887;28;20270;-69
2022/06/07 07:02:44;;;;;;;19.87;16.87;;;14.80;99.90;;;;;;5014146;28;20232;-70
2022/06/07 07:05:17;;;;;;;21.10;16.13;;;14.90;99.90;;;;;;5008361;28;20746;-69
2022/06/07 07:07:55;;;;;;;17.60;15.63;;;15.10;99.90;;;;;;5012549;28;21170;-70
2022/06/07 07:10:26;;;;;;;18.33;15.63;;;15.10;99.90;;;;;;5008431;28;20244;-70
2022/06/07 07:12:54;;;;;;;18.67;15.77;;;15.10;99.90;;;;;;5006632;28;20980;-69
2022/06/07 07:15:32;;;;;;;17.60;15.47;;;15.10;99.90;;;;;;5001097;28;20236;-70
2022/06/07 07:18:08;;;;;;;18.33;14.70;;;15.20;99.90;;;;;;5025314;28;20247;-70
2022/06/07 07:20:43;;;;;;;19.43;15.73;;;15.30;99.90;;;;;;5012189;28;20306;-70
2022/06/07 07:23:12;;;;;;;18.53;15.87;;;15.30;99.90;;;;;;5031439;28;20300;-70
2022/06/07 07:25:41;;;;;;;18.70;16.37;;;15.40;99.90;;;;;;5013733;28;20731;-70
2022/06/07 07:28:15;;;;;;;18.73;15.13;;;15.40;99.90;;;;;;5031626;28;20238;-70
2022/06/07 07:30:43;;;;;;;17.37;14.53;;;15.40;99.90;;;;;;5013828;28;20308;-70
2022/06/07 07:33:12;;;;;;;18.97;14.53;;;15.40;99.90;;;;;;5015488;28;20819;-70
2022/06/07 07:35:46;;;;;;;18.87;15.77;;;15.40;99.90;;;;;;5010719;28;20724;-69
2022/06/07 07:38:14;;;;;;;18.00;15.70;;;15.40;99.90;;;;;;5014884;28;20247;-69
2022/06/07 07:40:43;;;;;;;17.13;15.43;;;15.50;99.90;;;;;;5015783;28;20804;-70
2022/06/07 07:43:14;;;;;;;17.07;15.37;;;15.40;99.90;;;;;;5018757;28;20232;-70
2022/06/07 07:45:43;;;;;;;17.47;15.57;;;15.50;99.90;;;;;;5014494;28;20228;-70
2022/06/07 07:48:15;;;;;;;15.80;14.13;;;15.70;99.90;;;;;;5035146;28;20279;-70
2022/06/07 07:50:48;;;;;;;17.50;15.67;;;15.80;99.90;;;;;;5017882;28;20220;-71
2022/06/07 07:53:19;;;;;;;16.73;15.03;;;15.70;99.90;;;;;;5035216;28;20220;-69
2022/06/07 07:55:49;;;;;;;18.13;15.27;;;15.70;99.90;;;;;;5014871;28;20228;-70
2022/06/07 07:58:20;;;;;;;16.27;14.57;;;15.80;99.90;;;;;;5018640;28;20335;-71
2022/06/07 08:00:50;;;;;;;15.37;13.83;;;15.80;99.90;;;;;;5016891;28;20232;-71
2022/06/07 08:03:22;;;;;;;15.30;13.70;;;15.80;99.90;;;;;;5018103;28;20228;-71
2022/06/07 08:06:09;;;;;;;15.77;14.07;;;15.90;99.90;;;;;;5030870;28;20223;-70
2022/06/07 08:08:38;;;;;;;14.70;13.30;;;16.10;99.90;;;;;;5036514;28;20310;-70
2022/06/07 08:11:07;;;;;;;15.17;13.67;;;16.30;99.90;;;;;;5034242;28;20230;-70
2022/06/07 08:13:36;;;;;;;14.37;12.87;;;16.40;99.90;;;;;;5035896;28;20230;-70
2022/06/07 08:16:06;;;;;;;14.87;13.30;;;16.40;99.90;;;;;;5031702;28;20224;-70
2022/06/07 08:18:36;;;;;;;14.77;13.40;;;16.40;99.90;;;;;;5040207;28;20731;-71
2022/06/07 08:21:07;;;;;;;14.07;12.67;;;16.40;99.90;;;;;;5038336;28;20238;-70
2022/06/07 08:23:38;;;;;;;13.87;12.43;;;16.50;99.90;;;;;;5038807;28;20239;-71
2022/06/07 08:26:07;;;;;;;13.50;12.13;;;16.70;99.90;;;;;;5032830;28;20220;-71
2022/06/07 08:28:44;;;;;;;12.50;11.40;;;16.70;99.90;;;;;;5035388;28;20231;-70
2022/06/07 08:31:13;;;;;;;13.10;11.90;;;16.70;99.90;;;;;;5033969;28;20303;-70
2022/06/07 08:39:15;;;;;;;12.67;11.40;;;17.10;99.90;;;;;;5037273;28;20235;-70
2022/06/07 08:41:55;;;;;;;11.47;10.47;;;17.40;99.90;;;;;;5040213;28;20695;-70
2022/06/07 08:44:27;;;;;;;11.93;10.73;;;17.40;99.90;;;;;;5039199;28;20688;-70
2022/06/07 08:47:00;;;;;;;11.37;10.30;;;17.40;99.90;;;;;;5043559;28;20243;-70
2022/06/07 08:49:29;;;;;;;11.40;10.20;;;17.40;99.90;;;;;;5042079;28;20232;-70
2022/06/07 08:52:03;;;;;;;11.07;10.07;;;17.40;99.90;;;;;;5041653;28;20224;-69
2022/06/07 08:54:38;;;;;;;10.87;9.87;;;17.40;99.90;;;;;;5034405;28;20220;-70
2022/06/07 08:57:17;;;;;;;12.07;10.47;;;17.50;99.90;;;;;;5037433;28;20233;-70
2022/06/07 08:59:48;;;;;;;10.73;9.63;;;17.60;99.90;;;;;;5038632;28;20318;-69
2022/06/07 09:02:46;;;;;;;11.77;9.67;;;17.90;99.90;;;;;;5040417;28;20263;-69
2022/06/07 09:05:16;;;;;;;10.57;9.53;;;18.00;99.90;;;;;;5035147;28;20241;-69
2022/06/07 09:07:46;;;;;;;11.40;10.20;;;18.10;99.90;;;;;;5040573;28;20255;-69
2022/06/07 09:13:06;;;;;;;11.57;10.30;;;18.00;99.90;;;;;;5044110;28;20312;-69
2022/06/07 09:15:37;;;;;;;11.00;10.00;;;18.00;99.90;;;;;;5038625;28;20572;-69
2022/06/07 09:18:07;;;;;;;13.07;11.17;;;18.10;99.90;;;;;;5044026;28;20232;-70
2022/06/07 09:20:40;;;;;;;12.57;11.33;;;18.00;99.90;;;;;;5038059;28;20740;-70
2022/06/07 09:23:15;;;;;;;11.87;10.67;;;18.00;99.90;;;;;;5040366;28;20233;-71
2022/06/07 09:25:48;;;;;;;13.43;11.57;;;17.70;99.90;;;;;;5035249;28;20303;-69
2022/06/07 09:28:19;;;;;;;12.10;10.90;;;17.70;99.90;;;;;;5045402;28;20596;-70
2022/06/07 09:30:57;;;;;;;13.33;12.03;;;17.70;99.90;;;;;;5050990;28;20217;-70
2022/06/07 09:33:27;;;;;;;12.93;11.57;;;17.50;99.90;;;;;;5051076;28;20229;-70
2022/06/07 09:35:58;;;;;;;12.97;11.73;;;17.40;99.90;;;;;;5051113;28;20756;-70
2022/06/07 09:38:32;;;;;;;13.30;12.00;;;17.20;99.90;;;;;;5050723;28;20343;-71
2022/06/07 09:41:36;;;;;;;12.57;11.30;;;17.20;99.90;;;;;;5050860;28;20258;-70
2022/06/07 09:44:05;;;;;;;12.87;11.57;;;17.30;99.90;;;;;;5050070;28;20237;-70
2022/06/07 09:46:35;;;;;;;12.80;11.50;;;17.30;99.90;;;;;;5052189;28;20580;-70
2022/06/07 09:49:05;;;;;;;12.87;11.57;;;17.20;99.90;;;;;;5052583;28;20724;-71
2022/06/07 09:51:39;;;;;;;12.80;11.53;;;17.10;99.90;;;;;;5058448;28;20215;-70
2022/06/07 09:54:17;;;;;;;13.00;11.80;;;17.10;99.90;;;;;;5050373;28;20704;-70
2022/06/07 09:57:01;;;;;;;12.43;11.17;;;17.30;99.90;;;;;;5055521;28;20223;-70
2022/06/07 09:59:53;;;;;;;13.17;11.30;;;17.70;99.90;;;;;;5050765;28;20653;-70
2022/06/07 10:02:55;;;;;;;11.90;10.80;;;17.70;99.90;;;;;;5052416;28;20236;-70
2022/06/07 10:05:28;;;;;;;12.73;11.50;;;17.70;99.90;;;;;;5052154;28;20335;-70
2022/06/07 10:08:04;;;;;;;12.40;11.20;;;17.50;99.90;;;;;;5056256;28;20221;-70
2022/06/07 10:10:39;;;;;;;12.57;10.67;;;17.30;99.90;;;;;;5056419;28;20230;-71
2022/06/07 10:13:26;;;;;;;11.47;10.37;;;17.00;99.90;;;;;;5053633;28;20617;-70
2022/06/07 10:16:03;;;;;;;12.80;11.23;;;16.70;99.90;;;;;;5053583;28;20241;-70
2022/06/07 10:18:49;;;;;;;12.73;11.50;;;16.50;99.90;;;;;;5053250;28;20812;-71
2022/06/07 10:21:35;;;;;;;12.47;11.27;;;16.40;99.90;;;;;;5053097;28;20264;-70
2022/06/07 10:24:12;;;;;;;12.57;11.30;;;16.40;99.90;;;;;;5053649;28;20232;-70
2022/06/07 10:27:05;;;;;;;12.73;11.53;;;16.30;99.90;;;;;;5053755;28;20228;-71
2022/06/07 10:30:04;;;;;;;11.97;10.80;;;16.30;99.90;;;;;;5052084;28;20753;-71
2022/06/07 10:32:59;;;;;;;13.50;11.10;;;16.40;99.90;;;;;;5053225;28;20314;-70
2022/06/07 10:35:41;;;;;;;11.40;10.33;;;16.30;99.90;;;;;;5052989;28;20232;-70
2022/06/07 10:38:23;;;;;;;11.80;10.57;;;16.30;99.90;;;;;;5061653;28;20247;-70
2022/06/07 10:41:02;;;;;;;12.67;11.30;;;16.20;99.90;;;;;;5049714;28;20836;-71
2022/06/07 10:43:51;;;;;;;10.43;9.43;;;16.10;99.90;;;;;;5053461;28;20245;-70
2022/06/07 10:46:22;;;;;;;10.70;9.23;;;16.00;99.90;;;;;;5053096;28;20600;-71
2022/06/07 10:49:01;;;;;;;11.47;9.70;;;15.90;99.90;;;;;;5052732;28;20228;-70
2022/06/07 10:54:25;;;;;;;9.80;8.67;;;15.60;99.90;;;;;;5053308;28;20224;-70
2022/06/07 10:57:07;;;;;;;8.73;7.77;;;15.70;99.90;;;;;;5052133;28;20228;-70
2022/06/07 10:59:38;;;;;;;9.27;8.27;;;15.80;99.90;;;;;;5048288;28;20232;-70
2022/06/07 11:02:24;;;;;;;9.77;8.23;;;15.90;99.90;;;;;;5050055;28;20270;-70
2022/06/07 11:10:44;;;;;;;11.00;8.60;;;16.30;99.90;;;;;;5054025;28;20648;-69
2022/06/07 11:13:19;;;;;;;9.63;8.60;;;16.40;99.90;;;;;;5048561;28;20356;-70
2022/06/07 11:15:58;;;;;;;9.30;7.90;;;16.50;99.90;;;;;;5052193;28;20282;-70
2022/06/07 11:18:28;;;;;;;9.10;7.87;;;16.70;99.90;;;;;;5052372;28;20260;-69
2022/06/07 11:21:30;;;;;;;8.37;7.57;;;17.00;99.90;;;;;;5050565;28;20759;-70
2022/06/07 11:24:06;;;;;;;8.70;7.83;;;17.10;99.90;;;;;;5050840;28;20372;-70
2022/06/07 11:26:59;;;;;;;9.20;8.30;;;17.30;99.90;;;;;;5043097;28;20215;-69
2022/06/07 11:29:30;;;;;;;8.40;7.57;;;17.30;99.90;;;;;;5034674;28;20247;-69
2022/06/07 11:32:00;;;;;;;11.67;8.53;;;17.30;99.90;;;;;;5039512;28;20809;-69
2022/06/07 11:34:31;;;;;;;10.37;9.10;;;17.20;99.90;;;;;;5038685;28;20238;-69
2022/06/07 11:37:22;;;;;;;10.67;8.43;;;17.10;99.90;;;;;;5038841;28;20240;-69
2022/06/07 11:39:57;;;;;;;9.47;8.57;;;17.10;99.90;;;;;;5041364;28;20290;-70
2022/06/07 11:42:33;;;;;;;9.40;8.07;;;16.90;99.90;;;;;;5041535;28;20248;-69
2022/06/07 11:45:22;;;;;;;10.10;8.63;;;16.80;99.90;;;;;;5041380;28;20236;-70
2022/06/07 11:48:17;;;;;;;9.97;8.70;;;16.70;99.90;;;;;;5038131;28;20810;-69
2022/06/07 11:50:55;;;;;;;11.57;9.20;;;16.40;99.90;;;;;;5040215;28;20328;-70
2022/06/07 11:53:36;;;;;;;10.67;9.13;;;16.20;99.90;;;;;;5041808;28;20231;-69
2022/06/07 11:56:26;;;;;;;9.80;8.80;;;16.10;99.90;;;;;;5039121;28;21273;-69
2022/06/07 11:58:58;;;;;;;10.70;9.60;;;16.00;99.90;;;;;;5040355;28;20318;-69
2022/06/07 12:01:39;;;;;;;12.80;8.90;;;16.20;99.90;;;;;;5040096;28;20791;-70
2022/06/07 12:04:33;;;;;;;9.67;8.67;;;16.40;99.90;;;;;;5037784;28;20301;-70
2022/06/07 12:07:14;;;;;;;9.60;8.30;;;16.70;99.90;;;;;;5031927;28;20716;-69
2022/06/07 12:09:49;;;;;;;10.60;8.33;;;16.90;99.90;;;;;;5037111;28;20553;-69
2022/06/07 12:12:25;;;;;;;9.27;8.37;;;17.10;99.90;;;;;;5038394;28;20257;-70
2022/06/07 12:15:01;;;;;;;9.37;8.00;;;17.30;99.90;;;;;;5040589;28;20279;-70
2022/06/07 12:17:31;;;;;;;8.77;7.80;;;17.40;99.90;;;;;;5040215;28;20232;-70
2022/06/07 12:19:59;;;;;;;10.87;8.73;;;17.50;99.90;;;;;;5044059;28;20259;-70
2022/06/07 12:22:40;;;;;;;9.67;8.07;;;17.60;99.90;;;;;;5045317;28;20232;-70
2022/06/07 12:25:17;;;;;;;11.13;8.07;;;17.70;99.90;;;;;;5043746;28;20254;-70
2022/06/07 12:27:50;;;;;;;9.93;7.73;;;17.80;99.90;;;;;;5043252;28;20220;-70
2022/06/07 12:30:25;;;;;;;8.93;7.83;;;17.70;99.90;;;;;;5042005;28;20227;-70
2022/06/07 12:32:55;;;;;;;10.23;7.80;;;17.70;99.90;;;;;;5042057;28;20335;-70
2022/06/07 12:35:26;;;;;;;7.90;7.20;;;17.70;99.90;;;;;;5041677;28;21144;-70
2022/06/07 12:37:57;;;;;;;10.63;8.27;;;17.70;99.90;;;;;;5040254;28;20873;-69
2022/06/07 12:40:32;;;;;;;8.87;7.80;;;17.80;99.90;;;;;;5040308;28;20275;-69
2022/06/07 12:43:03;;;;;;;9.33;8.27;;;18.10;99.90;;;;;;5042363;28;20259;-70
2022/06/07 12:45:34;;;;;;;10.80;8.70;;;18.10;99.90;;;;;;5041397;28;20884;-69
2022/06/07 12:48:13;;;;;;;9.77;8.73;;;18.10;99.90;;;;;;5040613;28;20239;-69
2022/06/07 12:50:43;;;;;;;9.63;8.63;;;18.10;99.90;;;;;;5040047;28;20228;-70
2022/06/07 12:53:21;;;;;;;9.07;8.13;;;18.00;99.90;;;;;;5038996;28;20646;-69
2022/06/07 12:55:56;;;;;;;9.70;8.70;;;18.10;99.90;;;;;;5036327;28;20326;-70
2022/06/07 12:58:29;;;;;;;9.87;8.30;;;18.10;99.90;;;;;;5041637;28;20233;-69
2022/06/07 13:00:58;;;;;;;11.10;8.40;;;18.00;99.90;;;;;;5042132;28;20320;-69
2022/06/07 13:03:31;;;;;;;10.33;8.97;;;17.80;99.90;;;;;;5042844;28;20267;-69
2022/06/07 13:06:04;;;;;;;10.40;9.40;;;17.60;99.90;;;;;;5040759;28;20244;-69
2022/06/07 13:08:36;;;;;;;11.20;9.60;;;17.60;99.90;;;;;;5042469;28;20251;-70
2022/06/07 13:11:10;;;;;;;11.53;9.60;;;17.50;99.90;;;;;;5041309;28;20237;-70
2022/06/07 13:13:44;;;;;;;13.67;10.10;;;17.50;99.90;;;;;;5042314;28;20285;-70
2022/06/07 13:16:32;;;;;;;12.93;10.63;;;17.30;99.90;;;;;;5039746;28;20637;-70
2022/06/07 13:19:04;;;;;;;12.20;11.00;;;17.30;99.90;;;;;;5038727;28;20327;-70
2022/06/07 13:21:35;;;;;;;11.77;10.50;;;17.40;99.90;;;;;;5039079;28;20228;-70
2022/06/07 13:24:04;;;;;;;12.33;11.13;;;17.70;99.90;;;;;;5040047;28;20581;-69
2022/06/07 13:26:41;;;;;;;15.33;11.23;;;17.80;99.90;;;;;;5038733;28;20260;-70
2022/06/07 13:29:18;;;;;;;13.03;10.43;;;17.90;99.90;;;;;;5040336;28;20663;-70
2022/06/07 13:31:57;;;;;;;11.57;10.30;;;17.80;99.90;;;;;;5041411;28;20240;-69
2022/06/07 13:34:28;;;;;;;12.97;9.40;;;17.70;99.90;;;;;;5041808;28;20233;-70
2022/06/07 13:37:19;;;;;;;10.90;9.50;;;17.60;99.90;;;;;;5040445;28;20230;-69
2022/06/07 13:40:01;;;;;;;11.23;8.40;;;17.60;99.90;;;;;;5042757;28;20229;-70